Time;durP1;ratioP1;P1;durP2;ratioP2;P2;SDS_P1;SDS_P2;PMS_P1;PMS_P2;Temp;Humidity;BMP_temperature;BMP_pressure;BME280_temperature;BME280_humidity;BME280_pressure;Samples;Min_cycle;Max_cycle;Signal;HPM_P1;HPM_P2
2022/10/29 00:01:39;;;;;;;12.88;4.07;;;14.90;99.90;;;;;;5038352;28;20410;-73
2022/10/29 00:04:05;;;;;;;7.97;4.45;;;14.80;99.90;;;;;;5024429;28;20025;-74
2022/10/29 00:06:31;;;;;;;10.10;4.05;;;14.80;99.90;;;;;;5045241;28;20037;-73
2022/10/29 00:08:56;;;;;;;9.48;4.13;;;14.80;99.90;;;;;;5041420;28;20052;-73
2022/10/29 00:11:22;;;;;;;10.30;3.88;;;14.80;99.90;;;;;;5035184;28;20522;-73
2022/10/29 00:13:53;;;;;;;12.10;3.65;;;14.90;99.90;;;;;;5031835;28;20029;-73
2022/10/29 00:16:21;;;;;;;8.13;3.97;;;14.90;99.90;;;;;;5027177;28;20076;-73
2022/10/29 00:18:47;;;;;;;8.20;4.13;;;15.00;99.90;;;;;;5021134;28;20108;-72
2022/10/29 00:21:15;;;;;;;8.70;3.95;;;14.90;99.90;;;;;;5020423;28;20107;-73
2022/10/29 00:23:41;;;;;;;10.38;4.45;;;14.90;99.90;;;;;;5040103;28;20029;-73
2022/10/29 00:26:07;;;;;;;9.93;4.00;;;14.80;99.90;;;;;;5035479;28;20475;-73
2022/10/29 00:28:33;;;;;;;8.10;3.95;;;14.70;99.90;;;;;;5033524;28;20060;-73
2022/10/29 00:31:07;;;;;;;8.15;4.40;;;14.70;99.90;;;;;;5033852;28;20038;-73
2022/10/29 00:33:33;;;;;;;9.48;4.10;;;14.70;99.90;;;;;;5031585;28;20563;-73
2022/10/29 00:36:04;;;;;;;8.98;4.07;;;14.60;99.90;;;;;;5019200;28;20111;-73
2022/10/29 00:38:31;;;;;;;7.07;3.90;;;14.60;99.90;;;;;;5038312;28;20404;-73
2022/10/29 00:40:57;;;;;;;8.27;3.90;;;14.50;99.90;;;;;;5051278;28;20029;-73
2022/10/29 00:43:24;;;;;;;8.30;3.88;;;14.60;99.90;;;;;;5038653;28;20021;-73
2022/10/29 00:46:00;;;;;;;7.07;4.97;;;14.50;99.90;;;;;;5019628;28;20036;-74
2022/10/29 00:48:28;;;;;;;9.18;4.15;;;14.50;99.90;;;;;;5026931;28;20433;-74
2022/10/29 00:50:56;;;;;;;8.00;4.63;;;14.50;99.90;;;;;;5039273;28;20094;-71
2022/10/29 00:53:26;;;;;;;7.60;4.25;;;14.40;99.90;;;;;;5037783;28;20120;-72
2022/10/29 00:55:52;;;;;;;8.68;4.18;;;14.40;99.90;;;;;;5042305;28;20036;-72
2022/10/29 00:58:18;;;;;;;8.77;4.20;;;14.60;99.90;;;;;;5030990;28;20030;-72
2022/10/29 01:00:44;;;;;;;7.28;4.38;;;14.40;99.90;;;;;;5022046;28;20364;-72
2022/10/29 01:03:10;;;;;;;10.00;4.38;;;14.40;99.90;;;;;;5035713;28;20017;-72
2022/10/29 01:05:36;;;;;;;7.30;4.10;;;14.30;99.90;;;;;;5031204;28;20087;-71
2022/10/29 01:08:02;;;;;;;7.93;4.45;;;14.30;99.90;;;;;;5046842;28;20104;-72
2022/10/29 01:10:36;;;;;;;10.15;4.45;;;14.30;99.90;;;;;;5050998;28;20387;-73
2022/10/29 01:13:16;;;;;;;7.57;4.40;;;14.30;99.90;;;;;;5051072;28;20487;-73
2022/10/29 01:16:20;;;;;;;16.73;4.45;;;14.40;99.90;;;;;;5050990;28;20037;-73
2022/10/29 01:19:07;;;;;;;8.38;4.68;;;14.30;99.90;;;;;;5050775;28;20481;-72
2022/10/29 01:21:51;;;;;;;11.25;4.50;;;14.30;99.90;;;;;;5051033;28;20071;-72
2022/10/29 01:24:35;;;;;;;6.25;4.20;;;14.20;99.90;;;;;;5050892;28;20040;-72
2022/10/29 01:27:19;;;;;;;10.38;4.10;;;14.20;99.90;;;;;;5032874;28;20053;-73
2022/10/29 01:30:17;;;;;;;9.20;4.53;;;14.20;99.90;;;;;;5050842;28;20536;-72
2022/10/29 01:33:27;;;;;;;13.07;4.03;;;14.30;99.90;;;;;;5050925;28;20486;-72
2022/10/29 01:36:01;;;;;;;12.18;4.75;;;14.20;99.90;;;;;;5047569;28;20037;-72
2022/10/29 01:38:47;;;;;;;8.00;4.15;;;14.30;99.90;;;;;;5054205;28;20064;-73
2022/10/29 01:41:39;;;;;;;7.43;4.30;;;14.30;99.90;;;;;;5044719;28;20042;-71
2022/10/29 01:44:24;;;;;;;6.45;4.30;;;14.30;99.90;;;;;;5017901;28;20124;-72
2022/10/29 01:46:58;;;;;;;9.45;4.70;;;14.20;99.90;;;;;;5034122;28;20026;-71
2022/10/29 01:49:33;;;;;;;10.82;4.70;;;14.20;99.90;;;;;;5034272;28;20029;-72
2022/10/29 01:52:01;;;;;;;12.80;4.20;;;14.20;99.90;;;;;;5034369;28;20047;-72
2022/10/29 01:54:27;;;;;;;8.43;4.35;;;14.10;99.90;;;;;;5034165;28;20434;-72
2022/10/29 01:56:57;;;;;;;9.85;4.40;;;14.30;99.90;;;;;;5016144;28;20022;-72
2022/10/29 01:59:26;;;;;;;12.40;4.95;;;14.20;99.90;;;;;;5034092;28;20021;-72
2022/10/29 02:02:21;;;;;;;8.93;4.32;;;14.20;99.90;;;;;;5016203;28;20548;-71
2022/10/29 02:05:21;;;;;;;7.55;4.28;;;14.20;99.90;;;;;;5016197;28;20041;-72
2022/10/29 02:07:49;;;;;;;9.30;4.60;;;14.20;99.90;;;;;;5033748;28;20025;-75
2022/10/29 02:10:24;;;;;;;9.60;4.53;;;14.10;99.90;;;;;;5033764;28;20097;-73
2022/10/29 02:12:52;;;;;;;6.65;4.68;;;14.10;99.90;;;;;;5033845;28;20033;-72
2022/10/29 02:15:28;;;;;;;8.10;4.32;;;14.00;99.90;;;;;;5015969;28;20057;-72
2022/10/29 02:18:02;;;;;;;12.32;4.30;;;14.00;99.90;;;;;;5033646;28;20037;-74
2022/10/29 02:20:27;;;;;;;7.32;4.07;;;14.00;99.90;;;;;;5015996;28;20030;-74
2022/10/29 02:22:53;;;;;;;8.90;4.45;;;13.90;99.90;;;;;;5050471;28;20113;-74
2022/10/29 02:25:19;;;;;;;7.78;4.25;;;14.00;99.90;;;;;;5053494;28;20021;-73
2022/10/29 02:27:44;;;;;;;12.32;4.40;;;14.00;99.90;;;;;;5053245;28;20037;-72
2022/10/29 02:30:10;;;;;;;8.45;4.43;;;13.90;99.90;;;;;;5053395;28;20083;-74
2022/10/29 02:32:36;;;;;;;12.65;4.60;;;13.90;99.90;;;;;;5031951;28;20026;-74
2022/10/29 02:35:02;;;;;;;13.40;4.70;;;13.90;99.90;;;;;;5033348;28;20116;-74
2022/10/29 02:37:28;;;;;;;14.48;5.18;;;13.90;99.90;;;;;;5033237;28;20096;-73
2022/10/29 02:39:53;;;;;;;11.55;4.53;;;13.90;99.90;;;;;;5033335;28;20471;-73
2022/10/29 02:42:19;;;;;;;9.27;4.85;;;13.90;99.90;;;;;;5033192;28;20032;-74
2022/10/29 02:44:44;;;;;;;12.40;4.88;;;13.90;99.90;;;;;;5015569;28;20756;-74
2022/10/29 02:47:10;;;;;;;8.82;4.82;;;14.00;99.90;;;;;;5031930;28;20369;-73
2022/10/29 02:49:35;;;;;;;8.65;4.93;;;14.00;99.90;;;;;;5033111;28;20487;-73
2022/10/29 02:52:01;;;;;;;14.60;4.82;;;14.00;99.90;;;;;;5033099;28;20033;-73
2022/10/29 02:54:26;;;;;;;9.60;4.70;;;13.90;99.90;;;;;;5032928;28;20033;-74
2022/10/29 02:56:52;;;;;;;13.70;4.88;;;13.90;99.90;;;;;;5032615;28;20025;-76
2022/10/29 02:59:17;;;;;;;9.00;5.18;;;13.80;99.90;;;;;;5015222;28;20022;-73
2022/10/29 03:01:43;;;;;;;9.27;4.75;;;13.80;99.90;;;;;;5032717;28;20035;-73
2022/10/29 03:04:10;;;;;;;10.23;5.07;;;13.70;99.90;;;;;;5032884;28;20025;-73
2022/10/29 03:06:36;;;;;;;11.38;4.75;;;13.70;99.90;;;;;;5032763;28;20068;-72
2022/10/29 03:09:03;;;;;;;13.00;5.53;;;13.70;99.90;;;;;;5014929;28;20084;-73
2022/10/29 03:11:28;;;;;;;12.88;4.90;;;13.70;99.90;;;;;;5014768;28;20140;-74
2022/10/29 03:13:54;;;;;;;9.25;5.30;;;13.60;99.90;;;;;;5032687;28;20033;-73
2022/10/29 03:16:20;;;;;;;9.88;5.00;;;13.60;99.90;;;;;;5014828;28;20030;-75
2022/10/29 03:18:45;;;;;;;8.77;5.28;;;13.60;99.90;;;;;;5032365;28;20033;-72
2022/10/29 03:21:11;;;;;;;15.70;5.75;;;13.60;99.90;;;;;;5032513;28;20036;-73
2022/10/29 03:23:36;;;;;;;7.45;4.97;;;13.60;99.90;;;;;;5032547;28;20368;-73
2022/10/29 03:26:02;;;;;;;10.57;5.00;;;13.50;99.90;;;;;;5032440;28;20407;-74
2022/10/29 03:28:29;;;;;;;11.75;5.15;;;13.50;99.90;;;;;;5014434;28;20090;-74
2022/10/29 03:30:55;;;;;;;10.02;5.40;;;13.50;99.90;;;;;;5014642;28;20026;-73
2022/10/29 03:33:21;;;;;;;10.50;5.10;;;13.50;99.90;;;;;;5032488;28;20018;-74
2022/10/29 03:35:46;;;;;;;11.25;5.10;;;13.50;99.90;;;;;;5014435;28;20506;-72
2022/10/29 03:38:12;;;;;;;10.73;5.07;;;13.50;99.90;;;;;;5014418;28;20108;-73
2022/10/29 03:40:38;;;;;;;11.40;5.43;;;13.50;99.90;;;;;;5035681;28;20096;-72
2022/10/29 03:43:03;;;;;;;9.40;5.35;;;13.40;99.90;;;;;;5034301;28;20599;-72
2022/10/29 03:45:29;;;;;;;13.35;5.45;;;13.30;99.90;;;;;;5051967;28;20491;-72
2022/10/29 03:47:55;;;;;;;9.88;5.68;;;13.30;99.90;;;;;;5034703;28;20398;-73
2022/10/29 03:50:21;;;;;;;12.60;5.38;;;13.30;99.90;;;;;;5014324;28;20025;-71
2022/10/29 03:52:46;;;;;;;9.25;5.38;;;13.30;99.90;;;;;;5032045;28;20029;-71
2022/10/29 03:55:12;;;;;;;10.68;5.43;;;13.20;99.90;;;;;;5031933;28;20030;-72
2022/10/29 03:57:37;;;;;;;7.75;5.15;;;13.10;99.90;;;;;;5031676;28;20033;-72
2022/10/29 04:00:04;;;;;;;9.40;6.00;;;13.10;99.90;;;;;;5031438;28;20033;-71
2022/10/29 04:02:30;;;;;;;11.68;5.47;;;13.00;99.90;;;;;;5032043;28;20132;-72
2022/10/29 04:04:56;;;;;;;10.82;6.07;;;12.90;99.90;;;;;;5014157;28;20112;-73
2022/10/29 04:07:21;;;;;;;13.23;5.82;;;12.80;99.90;;;;;;5031710;28;20390;-73
2022/10/29 04:09:47;;;;;;;13.25;6.60;;;12.70;99.90;;;;;;5031575;28;20029;-72
2022/10/29 04:12:12;;;;;;;15.18;6.47;;;12.60;99.90;;;;;;5015293;28;20492;-73
2022/10/29 04:14:38;;;;;;;14.40;5.88;;;12.50;99.90;;;;;;5026736;28;20032;-74
2022/10/29 04:17:04;;;;;;;16.58;6.10;;;12.50;99.90;;;;;;5034644;28;20025;-74
2022/10/29 04:19:29;;;;;;;12.68;6.43;;;12.40;99.90;;;;;;5034875;28;20032;-74
2022/10/29 04:21:55;;;;;;;12.63;6.05;;;12.40;99.90;;;;;;5033901;28;20025;-72
2022/10/29 04:24:20;;;;;;;11.98;6.32;;;12.40;99.90;;;;;;5039098;28;20037;-71
2022/10/29 04:26:46;;;;;;;12.73;6.78;;;12.40;99.90;;;;;;5031477;28;20104;-72
2022/10/29 04:29:11;;;;;;;14.13;6.60;;;12.40;99.90;;;;;;5013716;28;20129;-73
2022/10/29 04:31:37;;;;;;;12.95;6.97;;;12.40;99.90;;;;;;5031521;28;20041;-71
2022/10/29 04:34:03;;;;;;;8.18;5.95;;;12.40;99.90;;;;;;5017351;28;20159;-71
2022/10/29 04:36:29;;;;;;;12.93;7.80;;;12.40;99.90;;;;;;5031296;28;20032;-72
2022/10/29 04:38:54;;;;;;;13.75;7.75;;;12.40;99.90;;;;;;5031335;28;20021;-71
2022/10/29 04:41:20;;;;;;;11.57;6.50;;;12.30;99.90;;;;;;5013769;28;20475;-72
2022/10/29 04:43:46;;;;;;;14.73;7.60;;;12.20;99.90;;;;;;5031328;28;20034;-73
2022/10/29 04:46:11;;;;;;;10.98;6.72;;;12.20;99.90;;;;;;5031480;28;20038;-73
2022/10/29 04:48:37;;;;;;;14.13;7.50;;;12.10;99.90;;;;;;5031306;28;20100;-73
2022/10/29 04:51:03;;;;;;;15.70;7.50;;;12.10;99.90;;;;;;5031272;28;20032;-72
2022/10/29 04:53:29;;;;;;;12.70;7.53;;;12.10;99.90;;;;;;5031141;28;20476;-72
2022/10/29 04:56:00;;;;;;;13.20;7.47;;;12.10;99.90;;;;;;5031332;28;20084;-70
2022/10/29 04:58:26;;;;;;;13.25;7.07;;;12.20;99.90;;;;;;5031071;28;20013;-72
2022/10/29 05:00:51;;;;;;;11.95;6.53;;;12.20;99.90;;;;;;5031143;28;20559;-72
2022/10/29 05:03:17;;;;;;;14.82;7.10;;;12.20;99.90;;;;;;5013661;28;20113;-72
2022/10/29 05:05:42;;;;;;;11.98;7.18;;;12.30;99.90;;;;;;5031226;28;20036;-72
2022/10/29 05:08:10;;;;;;;14.70;7.47;;;12.30;99.90;;;;;;5013177;28;20022;-72
2022/10/29 05:10:37;;;;;;;10.02;6.82;;;12.20;99.90;;;;;;5031732;28;20052;-71
2022/10/29 05:13:06;;;;;;;9.43;6.72;;;12.20;99.90;;;;;;5017291;28;20037;-74
2022/10/29 05:15:32;;;;;;;10.73;6.93;;;12.20;99.90;;;;;;5034901;28;20116;-75
2022/10/29 05:17:58;;;;;;;16.60;6.80;;;12.10;99.90;;;;;;5034664;28;20018;-72
2022/10/29 05:20:25;;;;;;;11.95;6.45;;;12.20;99.90;;;;;;5034880;28;20087;-73
2022/10/29 05:23:01;;;;;;;11.38;6.82;;;12.20;99.90;;;;;;5034800;28;20086;-73
2022/10/29 05:25:27;;;;;;;11.25;6.45;;;12.20;99.90;;;;;;5034858;28;20037;-73
2022/10/29 05:28:10;;;;;;;9.43;6.45;;;12.20;99.90;;;;;;5025404;28;20021;-73
2022/10/29 05:30:36;;;;;;;13.52;6.95;;;12.30;99.90;;;;;;5034603;28;20053;-73
2022/10/29 05:33:05;;;;;;;12.95;6.88;;;12.20;99.90;;;;;;5016906;28;20033;-73
2022/10/29 05:35:30;;;;;;;11.75;7.22;;;12.10;99.90;;;;;;5049458;28;20036;-73
2022/10/29 05:37:56;;;;;;;13.07;7.03;;;12.10;99.90;;;;;;5054276;28;20017;-73
2022/10/29 05:40:23;;;;;;;11.75;6.65;;;12.10;99.90;;;;;;5039664;28;20051;-73
2022/10/29 05:42:49;;;;;;;11.50;6.35;;;12.40;99.90;;;;;;5034474;28;20029;-73
2022/10/29 05:45:15;;;;;;;11.45;6.72;;;12.10;99.90;;;;;;5034368;28;20109;-73
2022/10/29 05:47:41;;;;;;;13.75;6.88;;;12.10;99.90;;;;;;5034125;28;20526;-72
2022/10/29 05:50:07;;;;;;;12.73;6.90;;;12.10;99.90;;;;;;5035096;28;20104;-72
2022/10/29 05:52:33;;;;;;;15.98;6.85;;;12.00;99.90;;;;;;5036279;28;20418;-73
2022/10/29 05:54:58;;;;;;;11.82;6.28;;;12.00;99.90;;;;;;5054052;28;20039;-73
2022/10/29 05:57:24;;;;;;;10.20;6.63;;;11.90;99.90;;;;;;5032562;28;20034;-73
2022/10/29 05:59:49;;;;;;;15.32;7.53;;;12.00;99.90;;;;;;5033868;28;20499;-73
2022/10/29 06:02:15;;;;;;;11.00;6.65;;;12.10;99.90;;;;;;5034114;28;20430;-73
2022/10/29 06:04:40;;;;;;;12.82;7.00;;;12.10;99.90;;;;;;5026904;28;20498;-73
2022/10/29 06:07:06;;;;;;;11.45;7.32;;;12.10;99.90;;;;;;5033829;28;20025;-72
2022/10/29 06:09:32;;;;;;;13.07;6.60;;;12.10;99.90;;;;;;5022308;28;20021;-73
2022/10/29 06:11:58;;;;;;;10.35;7.05;;;12.10;99.90;;;;;;5033895;28;20021;-73
2022/10/29 06:14:23;;;;;;;13.68;7.18;;;12.10;99.90;;;;;;5033971;28;20057;-74
2022/10/29 06:16:49;;;;;;;12.30;7.15;;;12.00;99.90;;;;;;5033564;28;20017;-73
2022/10/29 06:19:15;;;;;;;9.93;7.20;;;11.90;99.90;;;;;;5035832;28;20505;-73
2022/10/29 06:21:40;;;;;;;13.18;6.72;;;11.90;99.90;;;;;;5028488;28;20021;-73
2022/10/29 06:24:06;;;;;;;12.05;6.57;;;11.90;99.90;;;;;;5033726;28;20034;-74
2022/10/29 06:26:32;;;;;;;10.13;6.53;;;12.00;99.90;;;;;;5033706;28;20458;-73
2022/10/29 06:28:58;;;;;;;14.65;7.43;;;12.10;99.90;;;;;;5033358;28;20030;-73
2022/10/29 06:31:24;;;;;;;12.23;7.32;;;12.20;99.90;;;;;;5015798;28;20033;-73
2022/10/29 06:33:49;;;;;;;12.50;6.57;;;12.10;99.90;;;;;;5046792;28;20498;-73
2022/10/29 06:36:15;;;;;;;13.95;7.40;;;12.10;99.90;;;;;;5033454;28;20104;-72
2022/10/29 06:38:40;;;;;;;11.55;8.43;;;12.20;99.90;;;;;;5046669;28;20193;-74
2022/10/29 06:41:06;;;;;;;9.55;7.43;;;12.10;99.90;;;;;;5015623;28;20029;-73
2022/10/29 06:43:31;;;;;;;11.60;7.35;;;12.20;99.90;;;;;;5034123;28;20032;-73
2022/10/29 06:45:57;;;;;;;10.88;7.28;;;12.20;99.90;;;;;;5045812;28;20104;-73
2022/10/29 06:48:23;;;;;;;12.48;7.50;;;12.30;99.90;;;;;;5032979;28;20029;-73
2022/10/29 06:50:49;;;;;;;13.98;7.15;;;12.40;99.90;;;;;;5033117;28;20381;-73
2022/10/29 06:53:15;;;;;;;11.60;7.53;;;12.40;99.90;;;;;;5033185;28;20503;-73
2022/10/29 06:55:40;;;;;;;15.40;7.13;;;12.50;99.90;;;;;;5015238;28;20035;-73
2022/10/29 06:58:11;;;;;;;13.98;7.35;;;12.50;99.90;;;;;;5015073;28;20534;-73
2022/10/29 07:00:37;;;;;;;9.85;6.90;;;12.60;99.90;;;;;;5015214;28;20040;-73
2022/10/29 07:03:03;;;;;;;17.10;9.63;;;12.60;99.90;;;;;;5032848;28;20026;-73
2022/10/29 07:05:30;;;;;;;16.73;7.88;;;12.70;99.90;;;;;;5032949;28;20063;-74
2022/10/29 07:07:56;;;;;;;17.15;9.05;;;12.50;99.90;;;;;;5015508;28;20048;-73
2022/10/29 07:10:22;;;;;;;13.05;8.98;;;12.60;99.90;;;;;;5026861;28;20017;-73
2022/10/29 07:12:48;;;;;;;13.82;8.80;;;12.80;99.90;;;;;;5032745;28;20480;-73
2022/10/29 07:15:14;;;;;;;15.32;6.93;;;12.90;99.90;;;;;;5026916;28;20033;-73
2022/10/29 07:17:39;;;;;;;13.70;7.32;;;12.80;99.90;;;;;;5014778;28;20033;-73
2022/10/29 07:20:07;;;;;;;13.93;7.15;;;12.90;99.90;;;;;;5032561;28;20419;-73
2022/10/29 07:22:33;;;;;;;16.75;7.63;;;13.00;99.90;;;;;;5033760;28;20021;-71
2022/10/29 07:24:58;;;;;;;12.05;6.80;;;13.10;99.90;;;;;;5044160;28;20029;-72
2022/10/29 07:27:24;;;;;;;13.57;7.20;;;13.20;99.90;;;;;;5028948;28;20036;-73
2022/10/29 07:29:49;;;;;;;13.40;6.47;;;13.30;99.90;;;;;;5034250;28;20032;-73
2022/10/29 07:32:15;;;;;;;11.30;6.00;;;13.40;99.90;;;;;;5020056;28;20038;-73
2022/10/29 07:34:41;;;;;;;14.48;6.70;;;13.40;99.90;;;;;;5014180;28;20022;-73
2022/10/29 07:37:06;;;;;;;15.77;7.82;;;13.40;99.90;;;;;;5032954;28;20064;-73
2022/10/29 07:39:32;;;;;;;13.68;7.60;;;13.40;99.90;;;;;;5052184;28;20064;-74
2022/10/29 07:41:57;;;;;;;15.73;7.68;;;13.40;99.90;;;;;;5050749;28;20447;-73
2022/10/29 07:44:23;;;;;;;11.60;7.43;;;13.40;99.90;;;;;;5032140;28;20429;-73
2022/10/29 07:46:48;;;;;;;12.52;7.82;;;13.40;99.90;;;;;;5039135;28;20047;-74
2022/10/29 07:49:14;;;;;;;15.93;8.02;;;13.40;99.90;;;;;;5044411;28;20047;-73
2022/10/29 07:51:39;;;;;;;12.07;7.47;;;13.40;99.90;;;;;;5027471;28;20029;-73
2022/10/29 07:54:05;;;;;;;12.23;6.72;;;13.50;99.90;;;;;;5039737;28;20036;-74
2022/10/29 07:56:31;;;;;;;10.52;6.82;;;13.60;99.90;;;;;;5038637;28;20032;-74
2022/10/29 07:58:56;;;;;;;10.68;6.60;;;13.70;99.90;;;;;;5044414;28;20479;-72
2022/10/29 08:01:22;;;;;;;13.73;7.20;;;13.80;99.90;;;;;;5045217;28;20037;-73
2022/10/29 08:03:50;;;;;;;10.10;5.95;;;13.90;99.90;;;;;;5038967;28;20056;-73
2022/10/29 08:06:16;;;;;;;18.13;6.70;;;14.00;99.90;;;;;;5037307;28;20028;-73
2022/10/29 08:08:42;;;;;;;15.40;7.10;;;13.90;99.90;;;;;;5024494;28;20025;-75
2022/10/29 08:11:07;;;;;;;10.18;6.90;;;14.20;99.90;;;;;;5043608;28;20032;-74
2022/10/29 08:13:33;;;;;;;12.00;6.22;;;14.30;99.90;;;;;;5018446;28;20534;-73
2022/10/29 08:15:59;;;;;;;12.55;6.70;;;14.50;99.90;;;;;;5041259;28;20037;-73
2022/10/29 08:18:25;;;;;;;11.70;6.45;;;14.60;99.90;;;;;;5031066;28;20462;-73
2022/10/29 08:20:50;;;;;;;13.68;6.85;;;14.70;99.90;;;;;;5044966;28;20035;-73
2022/10/29 08:23:16;;;;;;;74.70;38.22;;;14.80;99.90;;;;;;5026267;28;20021;-73
2022/10/29 08:25:41;;;;;;;86.07;38.33;;;14.90;99.90;;;;;;5050826;28;20410;-73
2022/10/29 08:28:10;;;;;;;57.10;23.23;;;14.80;99.90;;;;;;5020988;28;20021;-73
2022/10/29 08:30:36;;;;;;;36.53;17.65;;;14.70;99.90;;;;;;5036634;28;20021;-73
2022/10/29 08:33:03;;;;;;;24.20;12.23;;;14.70;99.90;;;;;;5032938;28;21945;-73
2022/10/29 08:35:29;;;;;;;29.10;12.38;;;14.70;99.90;;;;;;5034956;28;20104;-73
2022/10/29 08:37:55;;;;;;;19.60;9.57;;;14.80;99.90;;;;;;5025583;28;20033;-73
2022/10/29 08:40:42;;;;;;;10.00;6.82;;;14.90;99.90;;;;;;5044732;28;20029;-73
2022/10/29 08:43:26;;;;;;;12.65;6.57;;;14.80;99.90;;;;;;5042577;28;20025;-74
2022/10/29 08:45:53;;;;;;;10.82;6.40;;;14.70;99.90;;;;;;5012863;28;20036;-73
2022/10/29 08:48:29;;;;;;;13.15;6.97;;;14.80;99.90;;;;;;5042727;28;20528;-73
2022/10/29 08:51:03;;;;;;;9.57;6.32;;;14.50;99.90;;;;;;5026121;28;20398;-74
2022/10/29 08:53:45;;;;;;;14.48;7.00;;;14.60;99.90;;;;;;5041885;28;20029;-75
2022/10/29 08:56:33;;;;;;;13.32;6.95;;;14.60;99.90;;;;;;5043556;28;20028;-73
2022/10/29 08:59:10;;;;;;;12.68;7.07;;;14.70;99.90;;;;;;5046704;28;20029;-73
2022/10/29 09:01:37;;;;;;;12.23;7.15;;;14.80;99.90;;;;;;5047904;28;20036;-75
2022/10/29 09:04:10;;;;;;;12.80;6.50;;;14.90;99.90;;;;;;5033615;28;20029;-74
2022/10/29 09:06:35;;;;;;;9.23;6.20;;;14.90;99.90;;;;;;5047295;28;20495;-73
2022/10/29 09:09:33;;;;;;;17.40;8.43;;;15.10;99.90;;;;;;5045514;28;20043;-74
2022/10/29 09:12:30;;;;;;;27.50;18.48;;;15.30;99.90;;;;;;5032023;28;20120;-74
2022/10/29 09:15:37;;;;;;;17.60;9.77;;;15.30;99.90;;;;;;5009297;28;20025;-75
2022/10/29 09:18:18;;;;;;;10.85;7.72;;;15.40;99.90;;;;;;5037534;28;20376;-74
2022/10/29 09:20:49;;;;;;;12.15;6.70;;;15.40;99.90;;;;;;5037054;28;20025;-76
2022/10/29 09:23:29;;;;;;;16.23;6.57;;;15.60;99.90;;;;;;5029812;28;20083;-73
2022/10/29 09:26:03;;;;;;;13.02;6.45;;;15.60;99.90;;;;;;5041105;28;20045;-74
2022/10/29 09:28:58;;;;;;;12.38;6.72;;;15.80;99.90;;;;;;5043929;28;20021;-74
2022/10/29 09:31:44;;;;;;;16.52;8.80;;;16.00;99.90;;;;;;5037628;28;20044;-73
2022/10/29 09:34:16;;;;;;;14.70;8.35;;;16.10;99.90;;;;;;5048069;28;20480;-73
2022/10/29 09:36:47;;;;;;;12.40;6.95;;;16.00;99.90;;;;;;5034367;28;20037;-73
2022/10/29 09:39:22;;;;;;;11.52;7.38;;;15.90;99.90;;;;;;5016640;28;20060;-74
2022/10/29 09:41:50;;;;;;;10.77;6.93;;;15.90;99.90;;;;;;5034394;28;20506;-74
2022/10/29 09:44:32;;;;;;;16.77;7.50;;;16.10;99.90;;;;;;5034445;28;20069;-73
2022/10/29 09:47:22;;;;;;;12.32;6.45;;;16.10;99.90;;;;;;5034092;28;20495;-73
2022/10/29 09:49:50;;;;;;;12.50;5.50;;;16.30;99.90;;;;;;5034294;28;20033;-73
2022/10/29 09:52:22;;;;;;;9.73;6.10;;;16.40;99.90;;;;;;5034240;28;20025;-73
2022/10/29 09:54:51;;;;;;;9.98;6.40;;;16.50;99.90;;;;;;5041831;28;20025;-73
2022/10/29 09:57:38;;;;;;;9.45;6.50;;;16.60;99.90;;;;;;5040069;28;20063;-73
2022/10/29 10:00:07;;;;;;;14.27;6.43;;;16.70;99.90;;;;;;5040036;28;20024;-73
2022/10/29 10:02:39;;;;;;;10.65;5.80;;;16.70;99.90;;;;;;5053882;28;20078;-73
2022/10/29 10:05:32;;;;;;;10.75;6.10;;;16.70;99.90;;;;;;5049744;28;20037;-73
2022/10/29 10:08:12;;;;;;;12.20;6.13;;;16.70;99.90;;;;;;5033660;28;20032;-74
2022/10/29 10:10:56;;;;;;;13.50;6.53;;;16.80;99.90;;;;;;5033886;28;20112;-74
2022/10/29 10:13:48;;;;;;;12.43;6.20;;;16.80;99.90;;;;;;5033799;28;20095;-73
2022/10/29 10:16:26;;;;;;;16.00;6.32;;;16.80;99.90;;;;;;5015758;28;20033;-73
2022/10/29 10:18:51;;;;;;;15.90;6.40;;;17.00;99.90;;;;;;5044100;28;20029;-74
2022/10/29 10:21:23;;;;;;;14.13;6.30;;;17.30;99.90;;;;;;5053852;28;20032;-73
2022/10/29 10:23:53;;;;;;;12.32;5.47;;;17.40;99.90;;;;;;5053481;28;20094;-74
2022/10/29 10:26:43;;;;;;;12.02;5.75;;;17.60;99.90;;;;;;5053459;28;20021;-72
2022/10/29 10:29:20;;;;;;;13.90;5.10;;;17.80;99.90;;;;;;5053048;28;20032;-73
2022/10/29 10:31:54;;;;;;;11.85;4.75;;;18.10;99.90;;;;;;5052572;28;20025;-73
2022/10/29 10:34:36;;;;;;;11.38;4.72;;;18.40;99.90;;;;;;5030675;28;20025;-74
2022/10/29 10:37:17;;;;;;;22.98;5.32;;;18.40;99.90;;;;;;5015537;28;20029;-74
2022/10/29 10:40:01;;;;;;;11.88;4.88;;;18.40;99.90;;;;;;5030460;28;20514;-74
2022/10/29 10:42:28;;;;;;;10.82;4.93;;;18.40;99.90;;;;;;5034793;28;20026;-74
2022/10/29 10:45:00;;;;;;;10.25;5.10;;;18.30;99.90;;;;;;5033349;28;20021;-74
2022/10/29 10:47:30;;;;;;;13.23;4.65;;;18.40;99.90;;;;;;5038933;28;20478;-74
2022/10/29 10:50:16;;;;;;;14.18;4.40;;;18.50;99.90;;;;;;5046053;28;20467;-73
2022/10/29 10:52:42;;;;;;;16.58;5.03;;;18.60;99.90;;;;;;5031070;28;20041;-74
2022/10/29 10:55:21;;;;;;;16.23;5.07;;;18.70;99.90;;;;;;5039700;28;20033;-75
2022/10/29 10:58:08;;;;;;;11.27;4.75;;;18.80;99.90;;;;;;5042213;28;20029;-74
2022/10/29 11:00:55;;;;;;;14.63;4.97;;;19.10;99.90;;;;;;5019463;28;20029;-73
2022/10/29 11:03:31;;;;;;;13.15;4.32;;;19.40;99.90;;;;;;5033951;28;20059;-74
2022/10/29 11:06:06;;;;;;;;;;;19.60;99.90;;;;;;5044746;28;20057;-74
2022/10/29 11:08:43;;;;;;;10.70;4.88;;;19.50;99.90;;;;;;5038305;28;19904;-74
2022/10/29 11:11:26;;;;;;;15.43;4.50;;;19.70;99.90;;;;;;5021656;28;20037;-73
2022/10/29 11:13:56;;;;;;;13.70;4.60;;;19.70;99.90;;;;;;5043274;28;20029;-73
2022/10/29 11:16:30;;;;;;;16.73;4.50;;;19.70;99.90;;;;;;5046100;28;20037;-74
2022/10/29 11:19:06;;;;;;;9.80;4.22;;;19.90;99.90;;;;;;5044277;28;20025;-74
2022/10/29 11:21:46;;;;;;;12.25;5.05;;;20.00;99.90;;;;;;5019735;28;20116;-74
2022/10/29 11:24:37;;;;;;;10.27;4.60;;;20.10;99.90;;;;;;5027721;28;20116;-74
2022/10/29 11:27:26;;;;;;;9.23;4.30;;;20.10;99.90;;;;;;5026320;28;20028;-73
2022/10/29 11:30:09;;;;;;;12.35;4.93;;;19.90;99.90;;;;;;5014666;28;20026;-74
2022/10/29 11:32:37;;;;;;;10.48;3.92;;;20.10;99.90;;;;;;5032329;28;20021;-73
2022/10/29 11:35:32;;;;;;;16.27;5.13;;;19.90;99.90;;;;;;5032312;28;20026;-74
2022/10/29 11:38:17;;;;;;;17.05;4.65;;;20.00;99.90;;;;;;5018617;28;20029;-74
2022/10/29 11:40:54;;;;;;;14.32;4.53;;;20.10;99.90;;;;;;5032180;28;20033;-74
2022/10/29 11:43:20;;;;;;;13.98;5.00;;;20.30;99.90;;;;;;5032224;28;20018;-74
2022/10/29 11:46:12;;;;;;;11.10;4.60;;;20.30;99.90;;;;;;5032177;28;20171;-74
2022/10/29 11:48:52;;;;;;;9.57;4.32;;;20.40;99.90;;;;;;5048176;28;20039;-74
2022/10/29 11:51:30;;;;;;;13.80;4.90;;;20.50;99.90;;;;;;5040807;28;20551;-74
2022/10/29 11:54:00;;;;;;;12.63;4.22;;;20.30;99.90;;;;;;5045351;28;20033;-74
2022/10/29 11:56:46;;;;;;;10.80;4.55;;;20.40;99.90;;;;;;5045391;28;20029;-74
2022/10/29 11:59:21;;;;;;;11.48;4.97;;;20.40;99.90;;;;;;5027016;28;20018;-74
2022/10/29 12:02:18;;;;;;;8.93;4.10;;;20.40;99.90;;;;;;5045118;28;20033;-70
2022/10/29 12:04:52;;;;;;;12.43;4.40;;;20.40;99.90;;;;;;5045391;28;20032;-75
2022/10/29 12:07:46;;;;;;;11.48;4.82;;;20.40;99.90;;;;;;5041293;28;20029;-74
2022/10/29 12:10:14;;;;;;;15.75;4.80;;;20.40;99.90;;;;;;5045102;28;20033;-75
2022/10/29 12:13:07;;;;;;;15.38;4.90;;;20.50;99.90;;;;;;5027378;28;20025;-74
2022/10/29 12:15:44;;;;;;;9.40;5.00;;;20.70;99.90;;;;;;5042122;28;20040;-74
2022/10/29 12:18:15;;;;;;;24.30;7.05;;;20.60;99.90;;;;;;5020739;28;20025;-74
2022/10/29 12:21:08;;;;;;;11.90;4.63;;;20.60;99.90;;;;;;5038975;28;20034;-74
2022/10/29 12:23:56;;;;;;;10.10;4.55;;;20.90;99.90;;;;;;5021764;28;20688;-74
2022/10/29 12:26:41;;;;;;;12.15;4.25;;;21.00;99.90;;;;;;5031749;28;20199;-76
2022/10/29 12:29:20;;;;;;;13.07;5.10;;;21.30;99.90;;;;;;5040461;28;20017;-75
2022/10/29 12:31:58;;;;;;;18.95;5.82;;;21.50;99.90;;;;;;5042070;28;20025;-76
2022/10/29 12:34:38;;;;;;;16.83;6.57;;;21.60;99.90;;;;;;5019411;28;20699;-75
2022/10/29 12:37:15;;;;;;;12.82;5.28;;;21.80;99.90;;;;;;5027258;28;20053;-75
2022/10/29 12:39:48;;;;;;;11.18;4.50;;;21.70;99.90;;;;;;5042278;28;20071;-75
2022/10/29 12:42:20;;;;;;;9.95;4.93;;;21.50;99.90;;;;;;5034890;28;20021;-75
2022/10/29 12:44:54;;;;;;;11.57;4.70;;;21.80;99.90;;;;;;5051484;28;20032;-75
2022/10/29 12:47:43;;;;;;;12.80;4.32;;;21.50;99.90;;;;;;5037739;28;20025;-73
2022/10/29 12:50:15;;;;;;;12.90;4.85;;;21.50;99.90;;;;;;5037257;28;20112;-73
2022/10/29 12:52:53;;;;;;;17.80;5.07;;;21.60;99.90;;;;;;5042478;28;20511;-75
2022/10/29 12:55:19;;;;;;;14.98;4.85;;;21.70;99.90;;;;;;5045090;28;20040;-74
2022/10/29 12:57:44;;;;;;;10.35;4.43;;;21.60;99.90;;;;;;5041533;28;20398;-75
2022/10/29 13:00:22;;;;;;;13.13;4.47;;;21.50;99.90;;;;;;5040531;28;20082;-74